This is the latest recevied weather packets stored in our database for station/object AG1T-20. If no packets are shown the sender has not sent any weather packets the latest 10 day(s).
| Time | Temp. | Humidity | Pressure | Rain* | Wind** | Luminosity | Snow |
|---|---|---|---|---|---|---|---|
| 1787581204 | 19.44° C | 62% | 1023.5 hPa | 0 mm | - | 475 W/m² | - |
| 1787580605 | 19.44° C | 63% | 1023.5 hPa | 0 mm | - | 445 W/m² | - |
| 1787580005 | 18.33° C | 68% | 1023.5 hPa | 0 mm | - | 396 W/m² | - |
| 1787579405 | 17.78° C | 68% | 1023.1 hPa | 0 mm | - | 55 W/m² | - |
| 1787578805 | 16.67° C | 73% | 1023.1 hPa | 0 mm | - | 293 W/m² | - |
| 1787578204 | 16.11° C | 74% | 1023.1 hPa | 0 mm | - | 35 W/m² | - |
| 1787577605 | 15.56° C | 76% | 1023.1 hPa | 0 mm | - | 21 W/m² | - |
| 1787577004 | 15.56° C | 77% | 1023.1 hPa | 0 mm | - | 14 W/m² | - |
| 1787576405 | 16.11° C | 75% | 1023.1 hPa | 0 mm | - | 11 W/m² | - |
| 1787575804 | 16.11° C | 75% | 1023 hPa | 0 mm | - | 6 W/m² | - |
| 1787575205 | 16.67° C | 73% | 1023 hPa | 0 mm | - | 1 W/m² | - |
| 1787574604 | 16.67° C | 71% | 1023 hPa | 0 mm | - | 0 W/m² | - |
| 1787574004 | 16.67° C | 71% | 1023 hPa | 0 mm | - | 0 W/m² | - |
| 1787573405 | 16.67° C | 73% | 1023 hPa | 0 mm | - | 0 W/m² | - |
| 1787572804 | 16.67° C | 71% | 1023 hPa | 0 mm | - | 0 W/m² | - |
| 1787572204 | 17.78° C | 66% | 1022.7 hPa | 0 mm | - | 0 W/m² | - |
| 1787571605 | 17.78° C | 65% | 1022.7 hPa | 0 mm | - | 0 W/m² | - |
| 1787571005 | 17.78° C | 67% | 1022.7 hPa | 0 mm | - | 0 W/m² | - |
| 1787570404 | 18.33° C | 64% | 1022.7 hPa | 0 mm | - | 0 W/m² | - |
| 1787569804 | 18.89° C | 61% | 1022.7 hPa | 0 mm | - | 0 W/m² | - |
| 1787569205 | 18.33° C | 62% | 1022.7 hPa | 0 mm | - | 0 W/m² | - |
| 1787568605 | 19.44° C | 57% | 1022.1 hPa | 0 mm | - | 0 W/m² | - |
| 1787568004 | 20.56° C | 53% | 1022.1 hPa | 0 mm | - | 0 W/m² | - |
| 1787567404 | 22.22° C | 46% | 1022.1 hPa | 0 mm | - | 0 W/m² | - |
| 1787566804 | 20.56° C | 52% | 1022.1 hPa | 0 mm | - | 0 W/m² | - |
* Rain latest hour (hover to see other rain measurements)
** Current wind speed in m/s (hover to see current wind gust speed)